Time;durP1;ratioP1;P1;durP2;ratioP2;P2;SDS_P1;SDS_P2;PMS_P1;PMS_P2;Temp;Humidity;BMP_temperature;BMP_pressure;BME280_temperature;BME280_humidity;BME280_pressure;Samples;Min_cycle;Max_cycle;Signal;HPM_P1;HPM_P2
2023/04/01 00:00:24;;;;;;;6.18;2.20;;;;;;;8.74;100.00;99086.81;5073063;28;20310;-82
2023/04/01 00:02:50;;;;;;;7.80;2.10;;;;;;;8.74;100.00;99099.16;5061649;28;20099;-81
2023/04/01 00:05:16;;;;;;;5.88;2.17;;;;;;;8.67;100.00;99103.84;5066399;28;20044;-81
2023/04/01 00:07:42;;;;;;;3.35;1.80;;;;;;;8.71;100.00;99083.47;5073207;28;20036;-81
2023/04/01 00:10:10;;;;;;;6.55;2.10;;;;;;;8.68;100.00;99097.66;5071755;28;20043;-81
2023/04/01 00:12:37;;;;;;;7.68;2.47;;;;;;;8.68;100.00;99113.50;5054943;28;20033;-81
2023/04/01 00:15:05;;;;;;;6.90;2.30;;;;;;;8.68;100.00;99107.31;5065776;28;20095;-81
2023/04/01 00:17:30;;;;;;;6.95;2.35;;;;;;;8.68;100.00;99107.31;5071689;28;20087;-80
2023/04/01 00:19:56;;;;;;;5.57;2.38;;;;;;;8.64;100.00;99109.25;5071253;28;20056;-81
2023/04/01 00:22:23;;;;;;;4.70;2.35;;;;;;;8.66;100.00;99111.84;5070603;28;20038;-81
2023/04/01 00:24:49;;;;;;;5.40;2.80;;;;;;;8.63;100.00;99117.22;5072412;28;20024;-81
2023/04/01 00:27:15;;;;;;;6.75;3.30;;;;;;;8.61;100.00;99107.59;5073081;28;20452;-80
2023/04/01 00:29:45;;;;;;;5.40;3.47;;;;;;;8.64;100.00;99113.69;5072200;28;20070;-80
2023/04/01 00:32:11;;;;;;;6.55;3.53;;;;;;;8.65;100.00;99110.09;5071409;28;20125;-81
2023/04/01 00:34:37;;;;;;;6.13;3.13;;;;;;;8.68;100.00;99117.88;5070978;28;20636;-81
2023/04/01 00:37:04;;;;;;;5.47;3.40;;;;;;;8.65;100.00;99110.94;5071311;28;20391;-81
2023/04/01 00:39:31;;;;;;;8.13;3.28;;;;;;;8.67;100.00;99118.81;5053729;28;20499;-72
2023/04/01 00:41:57;;;;;;;6.15;3.97;;;;;;;8.70;100.00;99123.97;5071199;28;20032;-73
2023/04/01 00:44:28;;;;;;;5.95;4.07;;;;;;;8.67;100.00;99119.66;5070836;28;20451;-73
2023/04/01 00:46:56;;;;;;;7.15;4.40;;;;;;;8.66;100.00;99128.53;5070651;28;20040;-73
2023/04/01 00:49:34;;;;;;;6.50;4.75;;;;;;;8.66;100.00;99122.38;5070232;28;20125;-74
2023/04/01 00:52:02;;;;;;;8.18;5.55;;;;;;;8.66;100.00;99127.66;5072226;28;20036;-73
2023/04/01 00:54:30;;;;;;;7.07;4.90;;;;;;;8.68;100.00;99137.25;5070432;28;20379;-73
2023/04/01 00:57:36;;;;;;;8.45;5.43;;;;;;;8.68;100.00;99133.72;5071178;28;20020;-73
2023/04/01 01:00:09;;;;;;;6.72;4.97;;;;;;;8.69;100.00;99138.09;5061643;28;20439;-73
2023/04/01 01:02:34;;;;;;;6.45;5.60;;;;;;;8.70;100.00;99139.78;5070805;28;20447;-74
2023/04/01 01:05:00;;;;;;;7.82;6.13;;;;;;;8.67;100.00;99138.13;5053957;28;20128;-74
2023/04/01 01:07:47;;;;;;;6.85;5.85;;;;;;;8.67;100.00;99135.50;5053807;28;20101;-75
2023/04/01 01:10:15;;;;;;;7.95;6.43;;;;;;;8.69;100.00;99138.09;5070087;28;20028;-74
2023/04/01 01:13:02;;;;;;;7.60;5.25;;;;;;;8.68;100.00;99137.25;5070883;28;20024;-74
2023/04/01 01:15:46;;;;;;;6.72;5.28;;;;;;;8.69;100.00;99148.66;5069547;28;20425;-73
2023/04/01 01:18:38;;;;;;;10.20;7.20;;;;;;;8.68;100.00;99139.88;5071144;28;20037;-73
2023/04/01 01:21:22;;;;;;;9.40;6.80;;;;;;;8.68;100.00;99142.50;5058645;28;20448;-73
2023/04/01 01:23:54;;;;;;;8.93;6.75;;;;;;;8.68;100.00;99153.06;5070079;28;20128;-73
2023/04/01 01:26:49;;;;;;;9.48;7.90;;;;;;;8.68;100.00;99145.16;5068856;28;20115;-73
2023/04/01 01:29:17;;;;;;;10.15;7.28;;;;;;;8.69;100.00;99144.22;5069117;28;20074;-73
2023/04/01 01:31:55;;;;;;;9.43;7.20;;;;;;;8.67;100.00;99155.75;5070556;28;20017;-73
2023/04/01 01:34:23;;;;;;;8.40;6.63;;;;;;;8.69;100.00;99154.78;5069969;28;20860;-74
2023/04/01 01:36:54;;;;;;;8.88;7.40;;;;;;;8.67;100.00;99153.13;5030489;28;20072;-73
2023/04/01 01:39:27;;;;;;;8.23;6.78;;;;;;;8.69;100.00;99151.28;5030001;28;20128;-74
2023/04/01 01:42:02;;;;;;;7.50;5.72;;;;;;;8.72;100.00;99156.44;5010839;28;20524;-73
2023/04/01 01:44:30;;;;;;;10.52;6.45;;;;;;;8.67;100.00;99156.63;5013664;28;20129;-74
2023/04/01 01:46:57;;;;;;;6.93;6.22;;;;;;;8.69;100.00;99162.69;5030632;28;20119;-74
2023/04/01 01:49:24;;;;;;;9.35;6.38;;;;;;;8.69;100.00;99169.75;5029955;28;20034;-74
2023/04/01 01:51:50;;;;;;;6.00;4.85;;;;;;;8.70;100.00;99167.03;5030357;28;20033;-75
2023/04/01 01:54:17;;;;;;;5.32;4.38;;;;;;;8.67;100.00;99171.59;5031513;28;20039;-71
2023/04/01 01:56:47;;;;;;;5.00;4.00;;;;;;;8.65;100.00;99174.28;5026977;28;20056;-71
2023/04/01 01:59:15;;;;;;;4.67;3.70;;;;;;;8.64;100.00;99167.31;5028266;28;20534;-74
2023/04/01 02:01:45;;;;;;;4.82;3.35;;;;;;;8.61;100.00;99170.06;5017252;28;20083;-74
2023/04/01 02:04:15;;;;;;;4.53;2.83;;;;;;;8.62;100.00;99177.06;5030791;28;20037;-73
2023/04/01 02:06:47;;;;;;;5.10;2.70;;;;;;;8.68;100.00;99176.81;5034376;28;20087;-74
2023/04/01 02:09:13;;;;;;;3.10;2.20;;;;;;;8.61;100.00;99181.47;5030968;28;20084;-72
2023/04/01 02:11:46;;;;;;;4.18;2.40;;;;;;;8.53;100.00;99180.94;5033412;28;20457;-74
2023/04/01 02:14:17;;;;;;;4.55;2.38;;;;;;;8.51;100.00;99181.91;5033520;28;20128;-73
2023/04/01 02:16:58;;;;;;;3.72;2.50;;;;;;;8.49;100.00;99184.59;5033778;28;20030;-74
2023/04/01 02:19:32;;;;;;;3.63;2.38;;;;;;;8.50;100.00;99190.72;5033268;28;20055;-74
2023/04/01 02:22:02;;;;;;;3.30;2.42;;;;;;;8.52;100.00;99194.19;5031133;28;20029;-74
2023/04/01 02:24:31;;;;;;;4.82;3.55;;;;;;;8.49;100.00;99181.13;5033659;28;20127;-74
2023/04/01 02:26:56;;;;;;;4.50;3.10;;;;;;;8.48;100.00;99189.94;5022872;28;20052;-73
2023/04/01 02:29:27;;;;;;;4.63;3.13;;;;;;;8.45;100.00;99179.50;5033665;28;20045;-73
2023/04/01 02:31:53;;;;;;;6.50;3.23;;;;;;;8.42;100.00;99187.56;5033618;28;20037;-75
2023/04/01 02:34:21;;;;;;;5.45;2.88;;;;;;;8.42;100.00;99195.47;5030290;28;20631;-74
2023/04/01 02:36:48;;;;;;;4.63;2.60;;;;;;;8.40;100.00;99192.88;5070686;28;20076;-73
2023/04/01 02:39:14;;;;;;;4.32;2.38;;;;;;;8.37;100.00;99191.19;5074522;28;20491;-73
2023/04/01 02:41:41;;;;;;;5.97;2.40;;;;;;;8.36;100.00;99193.91;5073281;28;20041;-72
2023/04/01 02:44:07;;;;;;;4.28;2.30;;;;;;;8.35;100.00;99202.72;5073189;28;20044;-72
2023/04/01 02:46:33;;;;;;;5.13;2.47;;;;;;;8.34;100.00;99203.66;5073520;28;20111;-73
2023/04/01 02:48:59;;;;;;;4.38;2.40;;;;;;;8.35;100.00;99200.94;5072944;28;20086;-73
2023/04/01 02:51:25;;;;;;;3.67;2.83;;;;;;;8.33;100.00;99207.19;5040159;28;20391;-73
2023/04/01 02:53:51;;;;;;;6.50;2.80;;;;;;;8.30;100.00;99207.31;5074376;28;20071;-73
2023/04/01 02:56:17;;;;;;;4.68;3.13;;;;;;;8.29;100.00;99210.88;5056281;28;20115;-73
2023/04/01 02:58:43;;;;;;;6.22;3.00;;;;;;;8.27;100.00;99205.66;5073071;28;20136;-73
2023/04/01 03:01:08;;;;;;;7.05;2.90;;;;;;;8.27;100.00;99221.47;5072773;28;20539;-73
2023/04/01 03:03:34;;;;;;;6.10;2.33;;;;;;;8.26;100.00;99205.69;5056455;28;20115;-74
2023/04/01 03:06:12;;;;;;;4.25;2.78;;;;;;;8.27;100.00;99218.00;5053075;28;20037;-73
2023/04/01 03:08:37;;;;;;;5.07;2.95;;;;;;;8.28;100.00;99222.34;5066886;28;20040;-73
2023/04/01 03:11:03;;;;;;;5.05;3.25;;;;;;;8.28;100.00;99212.63;5072511;28;20490;-71
2023/04/01 03:13:29;;;;;;;6.85;3.80;;;;;;;8.26;100.00;99216.25;5072809;28;20043;-73
2023/04/01 03:15:55;;;;;;;6.18;4.82;;;;;;;8.24;100.00;99211.06;5055771;28;20388;-73
2023/04/01 03:18:21;;;;;;;8.18;4.53;;;;;;;8.25;100.00;99225.09;5072967;28;20032;-73
2023/04/01 03:20:47;;;;;;;7.60;5.60;;;;;;;8.25;100.00;99220.66;5049916;28;20108;-73
2023/04/01 03:23:13;;;;;;;9.23;6.15;;;;;;;8.21;100.00;99220.84;5072698;28;20044;-72
2023/04/01 03:25:39;;;;;;;8.68;6.00;;;;;;;8.24;100.00;99236.56;5072192;28;20032;-72
2023/04/01 03:28:04;;;;;;;10.10;6.38;;;;;;;8.25;100.00;99228.59;5072369;28;20376;-73
2023/04/01 03:30:31;;;;;;;8.18;5.93;;;;;;;8.21;100.00;99221.72;5073596;28;20107;-72
2023/04/01 03:32:59;;;;;;;11.85;6.45;;;;;;;8.24;100.00;99233.94;5072080;28;20436;-73
2023/04/01 03:35:25;;;;;;;8.20;5.53;;;;;;;8.23;100.00;99229.56;5072189;28;20128;-73
2023/04/01 03:37:52;;;;;;;7.93;5.90;;;;;;;8.20;100.00;99225.25;5072218;28;20051;-73
2023/04/01 03:40:18;;;;;;;7.07;5.47;;;;;;;8.22;100.00;99233.13;5071549;28;20101;-73
2023/04/01 03:42:43;;;;;;;7.88;5.55;;;;;;;8.21;100.00;99239.31;5052259;28;20170;-73
2023/04/01 03:45:11;;;;;;;7.93;5.63;;;;;;;8.20;100.00;99230.53;5050653;28;20400;-72
2023/04/01 03:47:37;;;;;;;5.57;4.03;;;;;;;8.19;100.00;99237.59;5072153;28;20514;-74
2023/04/01 03:50:03;;;;;;;7.85;4.85;;;;;;;8.18;100.00;99241.16;5071943;28;20024;-74
2023/04/01 03:52:29;;;;;;;8.15;4.10;;;;;;;8.15;100.00;99237.75;5039157;28;20040;-73
2023/04/01 03:54:54;;;;;;;4.90;3.47;;;;;;;8.16;100.00;99245.63;5055206;28;20430;-73
2023/04/01 03:57:20;;;;;;;8.38;4.18;;;;;;;8.14;100.00;99250.09;5072219;28;20194;-74
2023/04/01 03:59:46;;;;;;;6.30;4.40;;;;;;;8.15;100.00;99240.41;5038547;28;20032;-74
2023/04/01 04:02:11;;;;;;;8.18;4.65;;;;;;;8.14;100.00;99244.81;5038839;28;20036;-74
2023/04/01 04:04:38;;;;;;;6.15;4.57;;;;;;;8.17;100.00;99257.88;5071803;28;20043;-73
2023/04/01 04:07:04;;;;;;;6.40;4.30;;;;;;;8.11;100.00;99247.59;5071992;28;20041;-73
2023/04/01 04:09:39;;;;;;;5.18;3.97;;;;;;;8.15;100.00;99257.06;5057606;28;20340;-73
2023/04/01 04:12:06;;;;;;;7.30;4.40;;;;;;;8.10;100.00;99264.28;5070745;28;20043;-73
2023/04/01 04:14:31;;;;;;;6.25;4.53;;;;;;;8.07;100.00;99264.41;5070808;28;20029;-73
2023/04/01 04:16:57;;;;;;;6.80;4.10;;;;;;;8.07;100.00;99276.75;5071560;28;20510;-74
2023/04/01 04:19:23;;;;;;;6.90;3.92;;;;;;;8.02;100.00;99271.63;5070736;28;20137;-73
2023/04/01 04:21:48;;;;;;;6.28;4.97;;;;;;;8.03;100.00;99272.50;5052792;28;20523;-74
2023/04/01 04:24:14;;;;;;;5.90;4.00;;;;;;;8.00;100.00;99275.25;5071214;28;20028;-73
2023/04/01 04:26:59;;;;;;;7.45;4.20;;;;;;;8.01;100.00;99266.41;5069853;28;20060;-73
2023/04/01 04:29:25;;;;;;;6.80;4.15;;;;;;;7.98;100.00;99275.28;5070399;28;20123;-73
2023/04/01 04:31:51;;;;;;;5.28;4.03;;;;;;;7.93;100.00;99282.50;5059092;28;20051;-77
2023/04/01 04:34:18;;;;;;;5.60;4.03;;;;;;;7.93;100.00;99272.81;5070932;28;20037;-74
2023/04/01 04:36:44;;;;;;;5.88;4.10;;;;;;;7.93;100.00;99279.88;5054388;28;20167;-74
2023/04/01 04:39:10;;;;;;;5.57;4.32;;;;;;;7.90;100.00;99280.84;5071104;28;20068;-74
2023/04/01 04:41:37;;;;;;;6.07;4.57;;;;;;;7.91;100.00;99285.22;5054593;28;20328;-73
2023/04/01 04:44:03;;;;;;;5.72;4.78;;;;;;;7.91;100.00;99293.13;5070996;28;20044;-74
2023/04/01 04:46:31;;;;;;;5.57;4.53;;;;;;;7.92;100.00;99288.72;5070498;28;20490;-73
2023/04/01 04:49:10;;;;;;;5.65;3.58;;;;;;;7.90;100.00;99290.53;5047688;28;20045;-74
2023/04/01 04:51:36;;;;;;;8.10;4.40;;;;;;;7.91;100.00;99297.50;5054075;28;20126;-73
2023/04/01 04:54:03;;;;;;;6.43;4.00;;;;;;;7.91;100.00;99308.94;5064107;28;20028;-73
2023/04/01 04:56:41;;;;;;;5.87;3.83;;;;;;;7.90;100.00;99307.19;5070055;28;20491;-76
2023/04/01 04:59:09;;;;;;;5.03;3.90;;;;;;;7.93;100.00;99307.09;5069996;28;20059;-74
2023/04/01 05:01:55;;;;;;;5.80;4.07;;;;;;;7.90;100.00;99315.09;5071133;28;20169;-73
2023/04/01 05:04:20;;;;;;;5.38;4.57;;;;;;;7.90;100.00;99324.78;5069960;28;20124;-73
2023/04/01 05:06:47;;;;;;;7.75;4.30;;;;;;;7.89;100.00;99315.19;5068407;28;20081;-73
2023/04/01 05:09:14;;;;;;;6.18;4.82;;;;;;;7.87;100.00;99320.50;5069741;28;20521;-73
2023/04/01 05:11:40;;;;;;;6.30;4.53;;;;;;;7.89;100.00;99331.84;5070138;28;20021;-73
2023/04/01 05:14:06;;;;;;;6.18;5.13;;;;;;;7.86;100.00;99325.81;5062029;28;20047;-73
2023/04/01 05:16:32;;;;;;;9.98;5.43;;;;;;;7.86;100.00;99331.97;5059144;28;20035;-73
2023/04/01 05:18:58;;;;;;;7.20;5.60;;;;;;;7.84;100.00;99333.78;5070962;28;20127;-73
2023/04/01 05:21:24;;;;;;;7.97;5.45;;;;;;;7.91;100.00;99344.94;5061796;28;20439;-73
2023/04/01 05:23:51;;;;;;;7.30;5.45;;;;;;;7.88;100.00;99348.56;5059260;28;20125;-73
2023/04/01 05:26:16;;;;;;;6.55;5.18;;;;;;;7.89;100.00;99344.16;5035559;28;20111;-74
2023/04/01 05:28:42;;;;;;;7.88;6.10;;;;;;;7.88;100.00;99355.59;5042074;28;20106;-74
2023/04/01 05:31:07;;;;;;;8.23;5.72;;;;;;;7.88;100.00;99356.47;5039703;28;20032;-74
2023/04/01 05:33:42;;;;;;;6.68;5.45;;;;;;;7.90;100.00;99359.06;5058214;28;20531;-83
2023/04/01 05:36:11;;;;;;;6.80;5.32;;;;;;;7.90;100.00;99362.56;5069129;28;20136;-83
2023/04/01 05:38:37;;;;;;;8.13;5.90;;;;;;;7.89;100.00;99360.84;5070188;28;20387;-83
2023/04/01 05:41:04;;;;;;;7.45;6.40;;;;;;;7.92;100.00;99367.78;5037127;28;20042;-82
2023/04/01 05:43:36;;;;;;;9.15;7.20;;;;;;;7.93;100.00;99362.44;5061334;28;20033;-83
2023/04/01 05:46:11;;;;;;;10.30;8.05;;;;;;;7.93;100.00;99375.63;5061863;28;20513;-82
2023/04/01 05:48:47;;;;;;;10.02;8.65;;;;;;;7.93;100.00;99375.63;5076420;28;20063;-81
2023/04/01 05:51:14;;;;;;;12.68;9.05;;;;;;;7.96;100.00;99382.56;5053309;28;20107;-82
2023/04/01 05:53:41;;;;;;;12.00;9.85;;;;;;;7.98;100.00;99384.22;5060198;28;20025;-82
2023/04/01 05:56:09;;;;;;;15.23;12.77;;;;;;;8.00;100.00;99381.53;5054350;28;20025;-83
2023/04/01 05:58:38;;;;;;;15.15;11.65;;;;;;;8.04;100.00;99392.88;5051429;28;20290;-82
2023/04/01 06:01:07;;;;;;;14.18;11.20;;;;;;;8.04;100.00;99388.44;5069949;28;20028;-82
2023/04/01 06:03:32;;;;;;;16.83;13.13;;;;;;;8.07;100.00;99400.66;5070517;28;20029;-82
2023/04/01 06:05:58;;;;;;;17.55;12.75;;;;;;;8.09;100.00;99407.59;5067443;28;20043;-82
2023/04/01 06:08:25;;;;;;;16.25;12.80;;;;;;;8.12;100.00;99411.91;5050058;28;20123;-82
2023/04/01 06:11:19;;;;;;;18.15;13.20;;;;;;;8.14;100.00;99413.56;5070536;28;20116;-83
2023/04/01 06:14:05;;;;;;;18.30;12.48;;;;;;;8.16;100.00;99418.81;5053937;28;20498;-83
2023/04/01 06:16:53;;;;;;;20.50;13.85;;;;;;;8.19;100.00;99422.19;5033185;28;20040;-82
2023/04/01 06:19:42;;;;;;;17.67;13.60;;;;;;;8.21;100.00;99429.16;5068919;28;20044;-82
2023/04/01 06:22:42;;;;;;;20.98;15.50;;;;;;;8.21;100.00;99434.44;5052402;28;20037;-82
2023/04/01 06:25:25;;;;;;;20.13;13.73;;;;;;;8.22;100.00;99434.41;5066479;28;20070;-82
2023/04/01 06:28:18;;;;;;;17.92;13.65;;;;;;;8.22;100.00;99436.19;5069455;28;20028;-82
2023/04/01 06:31:11;;;;;;;19.88;13.75;;;;;;;8.25;100.00;99455.38;5069759;28;20021;-82
2023/04/01 06:34:01;;;;;;;20.25;14.52;;;;;;;8.25;100.00;99455.38;5061378;28;20053;-82
2023/04/01 06:36:53;;;;;;;19.23;13.55;;;;;;;8.27;100.00;99450.06;5070048;28;20048;-82
2023/04/01 06:39:41;;;;;;;19.20;13.52;;;;;;;8.30;100.00;99461.38;5059707;28;20097;-82
2023/04/01 06:42:27;;;;;;;16.67;13.38;;;;;;;8.28;100.00;99455.28;5069790;28;20033;-82
2023/04/01 06:45:37;;;;;;;19.65;11.73;;;;;;;8.34;100.00;99462.13;5054707;28;20025;-82
2023/04/01 06:49:06;;;;;;;17.58;11.63;;;;;;;8.33;100.00;99469.19;5044019;28;20045;-82
2023/04/01 06:52:00;;;;;;;18.00;12.00;;;;;;;8.35;100.00;99471.75;5051584;28;20050;-82
2023/04/01 06:54:49;;;;;;;17.45;12.50;;;;;;;8.36;100.00;99474.34;5074282;28;20098;-82
2023/04/01 06:57:47;;;;;;;20.75;12.88;;;;;;;8.37;100.00;99469.94;5074717;28;20087;-82
2023/04/01 07:00:32;;;;;;;22.52;14.45;;;;;;;8.36;100.00;99471.72;5072959;28;20036;-82
2023/04/01 07:03:16;;;;;;;17.88;12.52;;;;;;;8.42;100.00;99485.63;5073416;28;20033;-82
2023/04/01 07:05:43;;;;;;;22.00;13.32;;;;;;;8.45;100.00;99489.00;5058875;28;20448;-73
2023/04/01 07:08:13;;;;;;;21.80;12.13;;;;;;;8.45;100.00;99494.28;5073092;28;20529;-74
2023/04/01 07:10:58;;;;;;;22.20;12.38;;;;;;;8.45;100.00;99501.34;5072932;28;20121;-73
2023/04/01 07:13:58;;;;;;;22.23;12.15;;;;;;;8.47;100.00;99500.38;5057830;28;20043;-73
2023/04/01 07:16:34;;;;;;;14.70;10.77;;;;;;;8.48;100.00;99504.75;5066078;28;20029;-74
2023/04/01 07:19:26;;;;;;;17.30;10.43;;;;;;;8.47;100.00;99512.72;5069514;28;20036;-74
2023/04/01 07:22:05;;;;;;;18.73;11.38;;;;;;;8.49;100.00;99513.53;5061350;28;20434;-73
2023/04/01 07:24:53;;;;;;;15.70;10.05;;;;;;;8.53;100.00;99520.41;5061088;28;20036;-73
2023/04/01 07:27:18;;;;;;;18.55;10.50;;;;;;;8.54;100.00;99517.72;5063241;28;20078;-73
2023/04/01 07:29:44;;;;;;;18.52;10.57;;;;;;;8.55;100.00;99526.50;5070075;28;20123;-73
2023/04/01 07:32:20;;;;;;;22.85;10.05;;;;;;;8.56;100.00;99537.00;5056525;28;20075;-74
2023/04/01 07:34:53;;;;;;;19.40;10.82;;;;;;;8.57;100.00;99535.22;5068979;28;20040;-72
2023/04/01 07:37:30;;;;;;;16.52;10.43;;;;;;;8.62;100.00;99543.84;5072254;28;20048;-71
2023/04/01 07:40:32;;;;;;;15.10;10.00;;;;;;;8.64;100.00;99530.63;5069447;28;20036;-70
2023/04/01 07:43:25;;;;;;;14.07;8.77;;;;;;;8.68;100.00;99541.00;5072078;28;20025;-70
2023/04/01 07:46:21;;;;;;;14.80;8.93;;;;;;;8.69;100.00;99547.16;5066728;28;20028;-71
2023/04/01 07:49:01;;;;;;;15.90;9.52;;;;;;;8.70;100.00;99551.50;5056321;28;20120;-71
2023/04/01 07:51:55;;;;;;;17.02;9.50;;;;;;;8.73;100.00;99557.53;5039744;28;20507;-71
2023/04/01 07:54:39;;;;;;;16.38;10.30;;;;;;;8.72;100.00;99549.66;5054903;28;20040;-71
2023/04/01 07:57:43;;;;;;;17.60;10.38;;;;;;;8.74;100.00;99563.69;5054842;28;20407;-71
2023/04/01 08:00:52;;;;;;;18.33;10.32;;;;;;;8.72;100.00;99555.81;5047224;28;20041;-71
2023/04/01 08:03:43;;;;;;;16.88;10.75;;;;;;;8.74;100.00;99563.69;4976231;28;20355;-71
2023/04/01 08:06:21;;;;;;;23.20;12.30;;;;;;;8.74;100.00;99575.09;4958767;28;20045;-72
2023/04/01 08:09:20;;;;;;;16.35;10.90;;;;;;;8.74;100.00;99571.59;5039955;28;20036;-72
2023/04/01 08:12:37;;;;;;;20.08;12.93;;;;;;;8.77;100.00;99576.75;5045027;28;20091;-71
2023/04/01 08:15:35;;;;;;;22.58;12.98;;;;;;;8.77;100.00;99588.19;5055822;28;20056;-71
2023/04/01 08:18:33;;;;;;;18.23;11.68;;;;;;;8.76;100.00;99593.53;5051578;28;20033;-71
2023/04/01 08:21:02;;;;;;;18.05;12.82;;;;;;;8.76;100.00;99597.03;5071747;28;20025;-71
2023/04/01 08:23:33;;;;;;;24.88;12.93;;;;;;;8.74;100.00;99601.50;5057192;28;20035;-71
2023/04/01 08:26:17;;;;;;;23.90;12.85;;;;;;;8.77;100.00;99606.66;5058385;28;20460;-71
2023/04/01 08:28:57;;;;;;;16.65;11.80;;;;;;;8.76;100.00;99604.09;5076610;28;20033;-71
2023/04/01 08:31:40;;;;;;;22.40;12.52;;;;;;;8.77;100.00;99614.56;5070410;28;20078;-71
2023/04/01 08:34:16;;;;;;;25.25;13.15;;;;;;;8.79;100.00;99607.47;5067394;28;20392;-71
2023/04/01 08:36:55;;;;;;;22.02;13.38;;;;;;;8.78;100.00;99611.03;5063405;28;20133;-79
2023/04/01 08:39:40;;;;;;;22.92;13.10;;;;;;;8.79;100.00;99620.66;5047266;28;20082;-79
2023/04/01 08:42:34;;;;;;;24.98;13.68;;;;;;;8.80;100.00;99618.88;5065055;28;20515;-79
2023/04/01 08:45:56;;;;;;;18.27;12.70;;;;;;;8.80;100.00;99630.34;5070181;28;20040;-80
2023/04/01 08:48:47;;;;;;;19.35;13.10;;;;;;;8.80;100.00;99627.69;5072041;28;20024;-71
2023/04/01 08:51:37;;;;;;;20.27;12.65;;;;;;;8.80;100.00;99638.25;5069066;28;20047;-71
2023/04/01 08:54:29;;;;;;;19.88;12.15;;;;;;;8.80;100.00;99640.88;5070628;28;20079;-71
2023/04/01 08:57:14;;;;;;;15.93;11.00;;;;;;;8.81;100.00;99647.88;5070835;28;20446;-70
2023/04/01 09:00:21;;;;;;;19.77;11.73;;;;;;;8.82;100.00;99654.03;5054875;28;20129;-71
2023/04/01 09:04:11;;;;;;;21.23;11.25;;;;;;;8.83;100.00;99653.97;5038850;28;20036;-80
2023/04/01 09:07:15;;;;;;;18.50;11.48;;;;;;;8.87;100.00;99667.06;5070583;28;20484;-80
2023/04/01 09:09:55;;;;;;;17.05;10.98;;;;;;;8.85;100.00;99663.63;5070127;28;20051;-80
2023/04/01 09:12:48;;;;;;;19.45;12.85;;;;;;;8.85;100.00;99675.03;5073782;28;20028;-80
2023/04/01 09:15:19;;;;;;;16.23;11.60;;;;;;;8.87;100.00;99677.63;5049782;28;20043;-80
2023/04/01 09:18:12;;;;;;;17.25;11.70;;;;;;;8.89;100.00;99683.72;5070359;28;20333;-80
2023/04/01 09:20:38;;;;;;;22.83;10.98;;;;;;;8.90;100.00;99681.03;5069490;28;20375;-79
2023/04/01 09:23:11;;;;;;;17.92;11.38;;;;;;;8.90;100.00;99686.31;5070465;28;20055;-80
2023/04/01 09:26:10;;;;;;;15.10;10.98;;;;;;;8.90;100.00;99691.59;5070462;28;20032;-82
2023/04/01 09:28:55;;;;;;;16.70;11.05;;;;;;;8.91;100.00;99689.81;5065093;28;20082;-78
2023/04/01 09:31:32;;;;;;;20.67;12.30;;;;;;;8.91;100.00;99698.59;5053783;28;20368;-79
2023/04/01 09:34:26;;;;;;;16.42;10.35;;;;;;;8.94;100.00;99695.84;5071946;28;20423;-79
2023/04/01 09:37:07;;;;;;;16.20;11.15;;;;;;;8.92;100.00;99697.66;5070291;28;20076;-81
2023/04/01 09:39:37;;;;;;;21.27;11.85;;;;;;;8.95;100.00;99700.25;5071137;28;20486;-80
2023/04/01 09:42:36;;;;;;;18.90;11.27;;;;;;;8.95;100.00;99697.59;5070273;28;20566;-79
2023/04/01 09:45:32;;;;;;;17.80;10.32;;;;;;;8.97;100.00;99701.03;5050642;28;20044;-80
2023/04/01 09:48:15;;;;;;;14.88;8.95;;;;;;;8.99;100.00;99711.53;5049997;28;20028;-80
2023/04/01 09:50:57;;;;;;;13.15;8.25;;;;;;;9.01;100.00;99705.28;5070372;28;20024;-79
2023/04/01 09:53:42;;;;;;;15.40;8.68;;;;;;;9.06;100.00;99712.22;5070474;28;20036;-79
2023/04/01 09:56:34;;;;;;;12.88;8.13;;;;;;;9.06;100.00;99713.06;5067321;28;20033;-79
2023/04/01 09:59:34;;;;;;;10.52;7.40;;;;;;;9.10;100.00;99722.63;5070458;28;20035;-80
2023/04/01 10:02:28;;;;;;;11.55;7.57;;;;;;;9.14;100.00;99720.72;5070083;28;20047;-79
2023/04/01 10:05:18;;;;;;;9.73;7.65;;;;;;;9.17;100.00;99720.63;5070191;28;20439;-79
2023/04/01 10:08:02;;;;;;;13.52;8.07;;;;;;;9.28;100.00;99725.56;5056972;28;20028;-79
2023/04/01 10:10:55;;;;;;;9.65;7.32;;;;;;;9.33;100.00;99726.25;5069947;28;20029;-79
2023/04/01 10:13:46;;;;;;;8.68;6.43;;;;;;;9.39;100.00;99729.53;5058461;28;20024;-80
2023/04/01 10:16:41;;;;;;;9.55;6.07;;;;;;;9.45;100.00;99731.13;5075801;28;20133;-79
2023/04/01 10:19:28;;;;;;;7.45;6.03;;;;;;;9.50;100.00;99736.25;5047581;28;20047;-79
2023/04/01 10:22:27;;;;;;;8.20;5.80;;;;;;;9.53;100.00;99738.78;5069884;28;20025;-78
2023/04/01 10:25:12;;;;;;;9.07;6.45;;;;;;;9.58;100.00;99742.97;5072121;28;20056;-79
2023/04/01 10:27:40;;;;;;;8.30;5.90;;;;;;;9.61;100.00;99745.50;5070544;28;20028;-79
2023/04/01 10:30:46;;;;;;;7.15;5.20;;;;;;;9.70;100.00;99744.31;5075146;28;20513;-80
2023/04/01 10:33:20;;;;;;;10.18;6.55;;;;;;;9.75;100.00;99750.31;5073436;28;20119;-78
2023/04/01 10:36:36;;;;;;;11.38;6.47;;;;;;;9.73;100.00;99761.84;5073570;28;20138;-80
2023/04/01 10:39:35;;;;;;;7.53;5.90;;;;;;;9.71;100.00;99751.31;4992355;28;20172;-78
2023/04/01 10:42:13;;;;;;;7.63;6.60;;;;;;;9.73;100.00;99751.28;5073439;28;20037;-79
2023/04/01 10:45:04;;;;;;;8.30;6.80;;;;;;;9.66;100.00;99758.56;5074772;28;20134;-78
2023/04/01 10:47:59;;;;;;;8.32;6.45;;;;;;;9.63;100.00;99753.38;5077638;28;20055;-79
2023/04/01 10:51:02;;;;;;;9.85;6.57;;;;;;;9.58;100.00;99769.41;5070927;28;20025;-78
2023/04/01 10:53:45;;;;;;;7.07;5.80;;;;;;;9.59;100.00;99762.34;5075919;28;20032;-79
2023/04/01 10:57:02;;;;;;;9.23;6.80;;;;;;;9.63;100.00;99766.59;5066485;28;20036;-78
2023/04/01 11:00:46;;;;;;;9.35;7.10;;;;;;;9.62;100.00;99764.88;5071533;28;20041;-79
2023/04/01 11:04:12;;;;;;;10.38;7.63;;;;;;;9.63;100.00;99771.88;5063710;28;20191;-78
2023/04/01 11:07:36;;;;;;;12.85;8.02;;;;;;;9.63;100.00;99771.88;5053981;28;20067;-79
2023/04/01 11:10:35;;;;;;;13.82;8.52;;;;;;;9.61;100.00;99776.34;5073732;28;20493;-79
2023/04/01 11:13:19;;;;;;;11.35;8.73;;;;;;;9.61;100.00;99777.22;5072968;28;20400;-78
2023/04/01 11:16:09;;;;;;;12.13;9.38;;;;;;;9.60;100.00;99782.56;5071651;28;20391;-80
2023/04/01 11:19:07;;;;;;;11.02;9.50;;;;;;;9.53;100.00;99789.84;5072314;28;20432;-80
2023/04/01 11:21:39;;;;;;;14.13;10.70;;;;;;;9.50;100.00;99791.75;5070850;28;20039;-79
2023/04/01 11:24:43;;;;;;;13.32;10.20;;;;;;;9.49;100.00;99790.84;5072520;28;20513;-79
2023/04/01 11:27:30;;;;;;;12.65;9.60;;;;;;;9.45;100.00;99795.41;5035078;28;20032;-79
2023/04/01 11:30:04;;;;;;;;;;;;;;;9.49;100.00;99793.50;5062765;28;20037;-78
2023/04/01 11:32:46;;;;;;;14.38;9.77;;;;;;;9.45;100.00;99794.53;5072631;28;20413;-79
2023/04/01 11:35:32;;;;;;;16.08;10.57;;;;;;;9.45;100.00;99803.31;5069463;28;20020;-78
2023/04/01 11:37:59;;;;;;;14.55;10.95;;;;;;;9.50;100.00;99804.97;5064610;28;20064;-79
2023/04/01 11:40:52;;;;;;;14.00;11.02;;;;;;;9.52;100.00;99809.28;5073552;28;20073;-79
2023/04/01 11:43:24;;;;;;;14.93;10.13;;;;;;;9.53;100.00;99808.34;5073593;28;20054;-79
2023/04/01 11:46:38;;;;;;;15.43;10.15;;;;;;;9.55;100.00;99808.31;5025656;28;20040;-78
2023/04/01 11:49:33;;;;;;;14.32;10.20;;;;;;;9.63;100.00;99822.97;5071529;28;20041;-78
2023/04/01 11:52:25;;;;;;;12.80;9.30;;;;;;;9.71;100.00;99821.84;5069994;28;20106;-79
2023/04/01 11:55:09;;;;;;;11.93;7.72;;;;;;;9.72;100.00;99829.75;5060540;28;20032;-78
2023/04/01 11:58:20;;;;;;;12.65;7.60;;;;;;;9.66;100.00;99827.28;5069615;28;20043;-78
2023/04/01 12:01:03;;;;;;;7.60;6.35;;;;;;;9.65;100.00;99831.72;5061751;28;20094;-79
2023/04/01 12:04:04;;;;;;;11.43;6.93;;;;;;;9.67;100.00;99834.31;5063953;28;20048;-78
2023/04/01 12:06:47;;;;;;;9.70;6.43;;;;;;;9.66;100.00;99830.78;5058391;28;20112;-78
2023/04/01 12:09:14;;;;;;;10.68;6.68;;;;;;;9.60;100.00;99838.09;5080518;28;20376;-78
2023/04/01 12:12:17;;;;;;;8.77;6.70;;;;;;;9.64;100.00;99853.78;5068723;28;20421;-78
2023/04/01 12:14:58;;;;;;;9.38;6.35;;;;;;;9.66;100.00;99859.00;5049713;28;20061;-78
2023/04/01 12:18:03;;;;;;;9.52;5.57;;;;;;;9.67;100.00;99858.97;5056233;28;20043;-78
2023/04/01 12:20:50;;;;;;;10.93;6.28;;;;;;;9.65;100.00;99858.16;5055577;28;20139;-78